createdAt,value
2023-04-30T00:00:32.186Z,94338.41
2023-04-30T00:02:33.822Z,94334.81
2023-04-30T00:04:35.441Z,94338.72
2023-04-30T00:06:37.118Z,94334.03
2023-04-30T00:08:38.705Z,94339.28
2023-04-30T00:10:40.313Z,94337.66
2023-04-30T00:12:41.996Z,94335.13
2023-04-30T00:14:43.596Z,94327.28
2023-04-30T00:16:45.238Z,94328.66
2023-04-30T00:18:46.850Z,94333.94
2023-04-30T00:20:48.448Z,94326.81
2023-04-30T00:22:50.036Z,94329.22
2023-04-30T00:24:51.989Z,94330.13
2023-04-30T00:26:53.611Z,94329.59
2023-04-30T00:28:55.366Z,94333.66
2023-04-30T00:30:57.116Z,94334.94
2023-04-30T00:32:58.715Z,94331.31
2023-04-30T00:35:00.280Z,94329.16
2023-04-30T00:37:01.898Z,94334.84
2023-04-30T00:39:04.054Z,94335.66
2023-04-30T00:41:05.908Z,94334.69
2023-04-30T00:43:07.458Z,94330.72
2023-04-30T00:45:09.487Z,94327.91
2023-04-30T00:47:11.134Z,94329.91
2023-04-30T00:49:12.856Z,94324.66
2023-04-30T00:51:14.562Z,94324.66
2023-04-30T00:53:17.016Z,94321.19
2023-04-30T00:55:18.793Z,94321.72
2023-04-30T00:57:20.745Z,94328.34
2023-04-30T00:59:22.752Z,94327.06
2023-04-30T01:01:25.886Z,94324.78
2023-04-30T01:03:28.886Z,94322.16
2023-04-30T01:05:30.930Z,94324.97
2023-04-30T01:07:33.059Z,94324.53
2023-04-30T01:09:34.731Z,94325.25
2023-04-30T01:11:47.914Z,94328.28
2023-04-30T01:14:08.197Z,94321.31
2023-04-30T01:16:16.746Z,94318.56
2023-04-30T01:19:12.001Z,94320.81
2023-04-30T01:21:15.671Z,94318.84
2023-04-30T01:23:32.170Z,94316.03
2023-04-30T01:25:39.733Z,94320.66
2023-04-30T01:28:07.133Z,94320.03
2023-04-30T01:30:09.251Z,94317.56
2023-04-30T01:32:11.524Z,94320.19
2023-04-30T01:34:13.098Z,94320.19
2023-04-30T01:36:52.562Z,94319.75
2023-04-30T01:39:07.131Z,94315.47
2023-04-30T01:41:41.526Z,94325.16
2023-04-30T01:43:50.539Z,94324.53
2023-04-30T01:46:07.398Z,94329.78
2023-04-30T01:48:21.190Z,94328.66
2023-04-30T01:50:39.851Z,94327.34
2023-04-30T01:52:50.955Z,94326.69
2023-04-30T01:54:56.645Z,94324.44
2023-04-30T01:57:06.936Z,94327.06
2023-04-30T01:59:09.233Z,94323.63
2023-04-30T02:01:28.644Z,94332.47
2023-04-30T02:03:30.530Z,94329.03
2023-04-30T02:05:32.272Z,94325.78
2023-04-30T02:07:39.641Z,94318.59
2023-04-30T02:09:41.279Z,94327.81
2023-04-30T02:11:42.872Z,94323.03
2023-04-30T02:13:44.469Z,94329.41
2023-04-30T02:15:46.080Z,94324.31
2023-04-30T02:17:48.059Z,94325.78
2023-04-30T02:19:49.619Z,94327.59
2023-04-30T02:21:51.328Z,94320.34
2023-04-30T02:23:53.222Z,94320.19
2023-04-30T02:25:54.819Z,94322.81
2023-04-30T02:27:56.344Z,94314.94
2023-04-30T02:29:58.542Z,94320.00
2023-04-30T02:32:00.874Z,94318.22
2023-04-30T02:34:02.443Z,94314.75
2023-04-30T02:36:04.426Z,94316.19
2023-04-30T02:38:05.972Z,94321.94
2023-04-30T02:40:08.250Z,94318.50
2023-04-30T02:42:10.054Z,94322.59
2023-04-30T02:44:12.205Z,94318.16
2023-04-30T02:46:13.836Z,94321.94
2023-04-30T02:48:15.931Z,94326.53
2023-04-30T02:50:17.531Z,94321.13
2023-04-30T02:52:19.135Z,94327.19
2023-04-30T02:54:21.076Z,94327.84
2023-04-30T02:56:22.740Z,94336.69
2023-04-30T02:58:24.305Z,94326.88
2023-04-30T03:00:26.493Z,94331.44
2023-04-30T03:02:28.095Z,94323.75
2023-04-30T03:04:29.702Z,94339.00
2023-04-30T03:06:32.221Z,94325.88
2023-04-30T03:08:33.864Z,94334.25
2023-04-30T03:10:35.512Z,94337.53
2023-04-30T03:12:37.214Z,94336.53
2023-04-30T03:14:38.801Z,94335.41
2023-04-30T03:16:41.553Z,94339.50
2023-04-30T03:18:43.626Z,94335.72
2023-04-30T03:20:45.302Z,94352.75
2023-04-30T03:22:46.920Z,94348.84
2023-04-30T03:24:48.469Z,94346.88
2023-04-30T03:26:50.008Z,94346.56
2023-04-30T03:28:51.608Z,94343.44
2023-04-30T03:30:53.199Z,94349.50
2023-04-30T03:32:54.797Z,94342.66
2023-04-30T03:34:56.499Z,94347.03
2023-04-30T03:36:58.538Z,94351.94
2023-04-30T03:39:00.293Z,94356.19
2023-04-30T03:41:01.873Z,94355.38
2023-04-30T03:43:03.491Z,94361.91
2023-04-30T03:45:05.477Z,94359.13
2023-04-30T03:47:07.140Z,94366.69
2023-04-30T03:49:08.850Z,94364.72
2023-04-30T03:51:10.920Z,94361.56
2023-04-30T03:53:12.512Z,94369.72
2023-04-30T03:55:14.097Z,94364.94
2023-04-30T03:57:15.877Z,94371.94
2023-04-30T03:59:17.869Z,94368.31
2023-04-30T04:01:19.497Z,94373.56
2023-04-30T04:03:21.238Z,94371.56
2023-04-30T04:05:22.842Z,94371.88
2023-04-30T04:07:24.483Z,94373.22
2023-04-30T04:09:26.261Z,94381.03
2023-04-30T04:11:27.914Z,94376.50
2023-04-30T04:13:29.499Z,94380.94
2023-04-30T04:15:31.284Z,94386.19
2023-04-30T04:17:33.048Z,94380.28
2023-04-30T04:19:34.722Z,94381.91
2023-04-30T04:21:36.874Z,94384.00
2023-04-30T04:23:38.550Z,94388.59
2023-04-30T04:25:41.725Z,94382.88
2023-04-30T04:27:43.263Z,94384.72
2023-04-30T04:29:44.824Z,94387.38
2023-04-30T04:31:49.093Z,94390.69
2023-04-30T04:33:58.142Z,94391.44
2023-04-30T04:35:59.942Z,94385.84
2023-04-30T04:38:01.562Z,94395.28
2023-04-30T04:40:05.072Z,94398.41
2023-04-30T04:42:06.715Z,94395.03
2023-04-30T04:44:08.438Z,94395.00
2023-04-30T04:46:12.971Z,94399.50
2023-04-30T04:48:15.948Z,94396.22
2023-04-30T04:50:18.198Z,94402.25
2023-04-30T04:52:19.733Z,94402.00
2023-04-30T04:54:21.395Z,94406.03
2023-04-30T04:56:22.998Z,94405.00
2023-04-30T04:58:24.664Z,94413.38
2023-04-30T05:00:26.258Z,94405.47
2023-04-30T05:02:27.964Z,94406.25
2023-04-30T05:04:30.503Z,94408.34
2023-04-30T05:06:32.256Z,94414.06
2023-04-30T05:08:33.956Z,94410.66
2023-04-30T05:10:35.578Z,94401.97
2023-04-30T05:12:37.186Z,94405.06
2023-04-30T05:14:38.837Z,94405.47
2023-04-30T05:16:40.634Z,94407.16
2023-04-30T05:18:42.282Z,94409.78
2023-04-30T05:20:43.969Z,94408.94
2023-04-30T05:22:45.543Z,94415.03
2023-04-30T05:24:47.166Z,94404.84
2023-04-30T05:26:48.813Z,94409.78
2023-04-30T05:28:52.455Z,94413.50
2023-04-30T05:30:54.194Z,94409.41
2023-04-30T05:32:56.948Z,94406.78
2023-04-30T05:34:58.585Z,94409.41
2023-04-30T05:37:01.657Z,94409.72
2023-04-30T05:39:03.308Z,94410.03
2023-04-30T05:41:05.149Z,94413.28
2023-04-30T05:43:06.811Z,94413.72
2023-04-30T05:45:08.793Z,94413.50
2023-04-30T05:47:10.571Z,94413.66
2023-04-30T05:49:12.177Z,94407.56
2023-04-30T05:51:14.051Z,94399.91
2023-04-30T05:53:15.702Z,94400.09
2023-04-30T05:55:17.397Z,94407.38
2023-04-30T05:57:19.039Z,94412.13
2023-04-30T05:59:20.623Z,94410.41
2023-04-30T06:01:23.336Z,94414.00
2023-04-30T06:03:25.160Z,94419.56
2023-04-30T06:05:27.075Z,94416.28
2023-04-30T06:07:28.814Z,94420.38
2023-04-30T06:09:30.478Z,94416.38
2023-04-30T06:11:32.209Z,94421.97
2023-04-30T06:13:33.913Z,94424.34
2023-04-30T06:15:35.696Z,94429.25
2023-04-30T06:17:37.568Z,94427.88
2023-04-30T06:19:39.301Z,94422.91
2023-04-30T06:21:41.001Z,94430.72
2023-04-30T06:23:42.562Z,94424.06
2023-04-30T06:25:44.194Z,94425.88
2023-04-30T06:27:46.201Z,94429.44
2023-04-30T06:29:47.817Z,94431.06
2023-04-30T06:31:49.508Z,94430.41
2023-04-30T06:33:51.254Z,94431.22
2023-04-30T06:35:55.464Z,94429.75
2023-04-30T06:37:57.116Z,94438.38
2023-04-30T06:39:58.695Z,94439.06
2023-04-30T06:42:00.418Z,94437.53
2023-04-30T06:44:01.992Z,94431.28
2023-04-30T06:46:04.069Z,94434.75
2023-04-30T06:48:05.792Z,94435.53
2023-04-30T06:50:07.722Z,94438.19
2023-04-30T06:52:09.657Z,94435.72
2023-04-30T06:54:11.287Z,94438.56
2023-04-30T06:56:13.257Z,94439.00
2023-04-30T06:58:15.026Z,94444.22
2023-04-30T07:00:16.858Z,94440.63
2023-04-30T07:02:21.210Z,94434.63
2023-04-30T07:04:24.661Z,94436.09
2023-04-30T07:06:26.847Z,94436.56
2023-04-30T07:08:28.488Z,94427.56
2023-04-30T07:10:31.266Z,94435.41
2023-04-30T07:12:32.884Z,94437.41
2023-04-30T07:14:34.477Z,94434.94
2023-04-30T07:16:36.110Z,94441.88
2023-04-30T07:18:38.098Z,94436.88
2023-04-30T07:20:39.776Z,94438.56
2023-04-30T07:22:46.197Z,94437.63
2023-04-30T07:24:47.863Z,94441.41
2023-04-30T07:26:49.457Z,94434.78
2023-04-30T07:28:51.136Z,94438.28
2023-04-30T07:30:53.221Z,94439.66
2023-04-30T07:32:54.918Z,94435.00
2023-04-30T07:34:56.609Z,94444.88
2023-04-30T07:36:58.233Z,94451.19
2023-04-30T07:38:59.893Z,94442.06
2023-04-30T07:41:02.279Z,94444.97
2023-04-30T07:43:05.213Z,94442.59
2023-04-30T07:45:07.284Z,94442.97
2023-04-30T07:47:10.032Z,94455.41
2023-04-30T07:49:11.676Z,94447.28
2023-04-30T07:51:13.236Z,94454.47
2023-04-30T07:53:14.831Z,94444.56
2023-04-30T07:55:16.680Z,94450.31
2023-04-30T07:57:18.262Z,94441.94
2023-04-30T07:59:21.438Z,94438.28
2023-04-30T08:01:23.091Z,94442.38
2023-04-30T08:03:24.769Z,94444.91
2023-04-30T08:05:27.306Z,94445.78
2023-04-30T08:07:28.987Z,94443.81
2023-04-30T08:09:31.370Z,94453.38
2023-04-30T08:11:33.000Z,94445.88
2023-04-30T08:13:34.722Z,94450.38
2023-04-30T08:15:37.799Z,94453.38
2023-04-30T08:17:39.388Z,94457.50
2023-04-30T08:19:41.061Z,94455.88
2023-04-30T08:21:42.680Z,94456.69
2023-04-30T08:23:44.437Z,94457.66
2023-04-30T08:25:46.132Z,94459.97
2023-04-30T08:27:47.687Z,94460.59
2023-04-30T08:29:49.372Z,94463.25
2023-04-30T08:31:51.061Z,94460.94
2023-04-30T08:33:52.720Z,94457.75
2023-04-30T08:35:54.580Z,94449.50
2023-04-30T08:37:56.232Z,94458.88
2023-04-30T08:39:58.349Z,94445.16
2023-04-30T08:42:03.732Z,94451.25
2023-04-30T08:44:08.216Z,94455.63
2023-04-30T08:46:13.444Z,94450.72
2023-04-30T08:48:16.641Z,94446.28
2023-04-30T08:50:18.471Z,94448.56
2023-04-30T08:52:20.599Z,94447.19
2023-04-30T08:54:23.138Z,94442.59
2023-04-30T08:56:25.710Z,94434.91
2023-04-30T08:58:27.330Z,94433.91
2023-04-30T09:00:28.994Z,94433.38
2023-04-30T09:02:32.987Z,94434.00
2023-04-30T09:04:34.631Z,94424.66
2023-04-30T09:06:36.274Z,94422.03
2023-04-30T09:08:50.752Z,94417.81
2023-04-30T09:10:52.394Z,94414.72
2023-04-30T09:13:07.700Z,94417.16
2023-04-30T09:15:09.814Z,94415.53
2023-04-30T09:17:22.153Z,94410.66
2023-04-30T09:19:25.445Z,94401.94
2023-04-30T09:21:35.146Z,94402.88
2023-04-30T09:23:36.824Z,94399.53
2023-04-30T09:25:42.625Z,94400.69
2023-04-30T09:27:45.311Z,94397.28
2023-04-30T09:29:47.173Z,94388.00
2023-04-30T09:31:48.893Z,94391.13
2023-04-30T09:33:51.053Z,94392.81
2023-04-30T09:35:52.686Z,94376.81
2023-04-30T09:37:54.337Z,94384.19
2023-04-30T09:39:57.140Z,94372.75
2023-04-30T09:42:11.558Z,94373.06
2023-04-30T09:44:29.000Z,94371.25
2023-04-30T09:46:32.421Z,94374.47
2023-04-30T09:48:34.129Z,94385.81
2023-04-30T09:50:41.887Z,94391.44
2023-04-30T09:52:54.062Z,94363.91
2023-04-30T09:54:55.662Z,94367.72
2023-04-30T09:56:59.351Z,94365.94
2023-04-30T09:59:00.808Z,94362.81
2023-04-30T10:01:03.581Z,94366.94
2023-04-30T10:03:12.890Z,94364.16
2023-04-30T10:05:14.651Z,94354.84
2023-04-30T10:07:22.228Z,94358.47
2023-04-30T10:09:30.896Z,94358.09
2023-04-30T10:11:34.414Z,94356.22
2023-04-30T10:13:44.835Z,94365.19
2023-04-30T10:15:51.927Z,94367.03
2023-04-30T10:17:59.851Z,94368.19
2023-04-30T10:20:05.876Z,94366.34
2023-04-30T10:22:08.076Z,94372.25
2023-04-30T10:24:10.735Z,94380.53
2023-04-30T10:26:12.898Z,94393.75
2023-04-30T10:28:14.722Z,94431.72
2023-04-30T10:30:16.473Z,94427.72
2023-04-30T10:32:18.556Z,94445.34
2023-04-30T10:34:33.505Z,94439.88
2023-04-30T10:36:44.915Z,94440.88
2023-04-30T10:38:48.417Z,94424.56
2023-04-30T10:40:50.251Z,94415.34
2023-04-30T10:42:54.724Z,94412.56
2023-04-30T10:44:56.936Z,94415.66
2023-04-30T10:47:02.577Z,94415.00
2023-04-30T10:49:04.223Z,94404.09
2023-04-30T10:51:06.291Z,94401.47
2023-04-30T10:53:08.505Z,94396.41
2023-04-30T10:55:10.705Z,94394.19
2023-04-30T10:57:17.793Z,94392.13
2023-04-30T10:59:20.158Z,94397.97
2023-04-30T11:01:22.231Z,94387.84
2023-04-30T11:03:25.152Z,94385.63
2023-04-30T11:05:38.876Z,94381.91
2023-04-30T11:07:50.582Z,94383.84
2023-04-30T11:09:57.549Z,94385.78
2023-04-30T11:12:03.987Z,94372.03
2023-04-30T11:14:05.728Z,94370.22
2023-04-30T11:16:07.480Z,94374.31
2023-04-30T11:18:09.871Z,94375.75
2023-04-30T11:20:19.267Z,94379.88
2023-04-30T11:22:24.720Z,94372.63
2023-04-30T11:24:51.993Z,94382.56
2023-04-30T11:27:05.676Z,94374.44
2023-04-30T11:29:07.585Z,94376.66
2023-04-30T11:31:09.288Z,94378.09
2023-04-30T11:33:11.932Z,94366.63
2023-04-30T11:35:15.243Z,94366.97
2023-04-30T11:37:22.005Z,94362.72
2023-04-30T11:39:24.782Z,94361.09
2023-04-30T11:41:27.486Z,94363.75
2023-04-30T11:43:33.611Z,94364.94
2023-04-30T11:45:35.459Z,94366.78
2023-04-30T11:47:43.032Z,94361.47
2023-04-30T11:49:44.713Z,94363.22
2023-04-30T11:51:49.769Z,94370.16
2023-04-30T11:53:53.475Z,94373.94
2023-04-30T11:55:56.056Z,94363.22
2023-04-30T11:57:59.469Z,94361.44
2023-04-30T12:00:10.055Z,94352.50
2023-04-30T12:02:16.095Z,94347.63
2023-04-30T12:04:19.331Z,94347.41
2023-04-30T12:06:25.303Z,94350.88
2023-04-30T12:08:27.225Z,94350.81
2023-04-30T12:10:28.848Z,94360.16
2023-04-30T12:12:31.094Z,94359.34
2023-04-30T12:14:34.919Z,94363.22
2023-04-30T12:16:49.546Z,94367.50
2023-04-30T12:18:52.826Z,94372.59
2023-04-30T12:20:55.032Z,94378.06
2023-04-30T12:22:57.837Z,94384.19
2023-04-30T12:25:00.297Z,94386.03
2023-04-30T12:27:02.448Z,94393.22
2023-04-30T12:29:05.479Z,94383.28
2023-04-30T12:31:07.325Z,94393.66
2023-04-30T12:33:10.750Z,94396.78
2023-04-30T12:35:17.056Z,94397.78
2023-04-30T12:37:18.686Z,94395.78
2023-04-30T12:39:20.418Z,94400.72
2023-04-30T12:41:22.926Z,94387.38
2023-04-30T12:43:24.488Z,94395.13
2023-04-30T12:45:55.986Z,94389.66
2023-04-30T12:47:57.702Z,94395.56
2023-04-30T12:49:59.391Z,94397.41
2023-04-30T12:52:02.751Z,94392.34
2023-04-30T12:54:04.421Z,94391.94
2023-04-30T12:56:16.011Z,94401.09
2023-04-30T12:58:17.729Z,94396.81
2023-04-30T13:00:19.350Z,94398.63
2023-04-30T13:02:24.626Z,94400.03
2023-04-30T13:04:26.952Z,94404.50
2023-04-30T13:06:29.303Z,94406.94
2023-04-30T13:08:32.612Z,94391.03
2023-04-30T13:10:36.950Z,94382.06
2023-04-30T13:12:38.630Z,94377.97
2023-04-30T13:14:40.215Z,94376.75
2023-04-30T13:16:42.017Z,94374.28
2023-04-30T13:18:44.112Z,94365.69
2023-04-30T13:20:45.837Z,94356.38
2023-04-30T13:22:47.746Z,94351.06
2023-04-30T13:24:49.572Z,94353.94
2023-04-30T13:26:51.194Z,94354.34
2023-04-30T13:28:52.831Z,94354.56
2023-04-30T13:30:54.424Z,94347.81
2023-04-30T13:32:56.207Z,94352.28
2023-04-30T13:34:58.507Z,94349.44
2023-04-30T13:37:00.406Z,94350.25
2023-04-30T13:39:01.960Z,94347.38
2023-04-30T13:41:03.649Z,94341.88
2023-04-30T13:43:05.287Z,94347.31
2023-04-30T13:45:07.564Z,94346.91
2023-04-30T13:47:10.344Z,94339.75
2023-04-30T13:49:12.014Z,94346.84
2023-04-30T13:51:13.937Z,94341.94
2023-04-30T13:53:16.174Z,94340.13
2023-04-30T13:55:17.900Z,94337.44
2023-04-30T13:57:19.499Z,94341.13
2023-04-30T13:59:21.218Z,94338.50
2023-04-30T14:01:22.946Z,94339.22
2023-04-30T14:03:24.678Z,94335.78
2023-04-30T14:05:26.893Z,94332.09
2023-04-30T14:07:28.453Z,94334.13
2023-04-30T14:09:30.395Z,94335.13
2023-04-30T14:11:32.436Z,94333.03
2023-04-30T14:13:34.298Z,94330.75
2023-04-30T14:15:35.993Z,94321.84
2023-04-30T14:17:37.837Z,94325.84
2023-04-30T14:19:39.619Z,94326.72
2023-04-30T14:21:41.213Z,94321.25
2023-04-30T14:23:46.023Z,94318.22
2023-04-30T14:25:47.756Z,94317.34
2023-04-30T14:27:49.426Z,94319.34
2023-04-30T14:29:51.544Z,94319.00
2023-04-30T14:31:53.217Z,94313.84
2023-04-30T14:33:55.319Z,94311.75
2023-04-30T14:35:56.945Z,94315.94
2023-04-30T14:37:58.586Z,94310.34
2023-04-30T14:40:01.988Z,94304.72
2023-04-30T14:42:04.140Z,94311.56
2023-04-30T14:44:05.833Z,94300.81
2023-04-30T14:46:07.594Z,94303.72
2023-04-30T14:48:09.634Z,94305.25
2023-04-30T14:50:11.250Z,94302.09
2023-04-30T14:52:13.831Z,94303.53
2023-04-30T14:54:15.637Z,94304.13
2023-04-30T14:56:17.407Z,94306.13
2023-04-30T14:58:20.225Z,94302.88
2023-04-30T15:00:22.033Z,94307.78
2023-04-30T15:02:23.725Z,94310.09
2023-04-30T15:04:25.354Z,94304.34
2023-04-30T15:06:27.567Z,94306.13
2023-04-30T15:08:29.198Z,94311.16
2023-04-30T15:10:30.771Z,94317.63
2023-04-30T15:12:32.709Z,94318.81
2023-04-30T15:14:34.280Z,94320.13
2023-04-30T15:16:35.869Z,94317.53
2023-04-30T15:18:38.543Z,94320.38
2023-04-30T15:20:40.423Z,94310.34
2023-04-30T15:22:42.331Z,94316.03
2023-04-30T15:24:44.322Z,94319.28
2023-04-30T15:26:46.053Z,94324.84
2023-04-30T15:28:47.668Z,94324.50
2023-04-30T15:30:49.367Z,94331.31
2023-04-30T15:32:51.053Z,94331.84
2023-04-30T15:34:52.990Z,94326.03
2023-04-30T15:36:54.647Z,94329.88
2023-04-30T15:38:56.252Z,94324.59
2023-04-30T15:40:57.889Z,94322.25
2023-04-30T15:42:59.508Z,94322.88
2023-04-30T15:45:01.222Z,94326.38
2023-04-30T15:47:03.224Z,94323.41
2023-04-30T15:49:05.035Z,94325.53
2023-04-30T15:51:06.721Z,94317.56
2023-04-30T15:53:09.178Z,94318.09
2023-04-30T15:55:10.791Z,94308.41
2023-04-30T15:57:13.145Z,94303.31
2023-04-30T15:59:17.729Z,94314.06
2023-04-30T16:01:23.448Z,94301.22
2023-04-30T16:03:25.322Z,94305.16
2023-04-30T16:05:26.970Z,94310.59
2023-04-30T16:07:28.642Z,94314.28
2023-04-30T16:09:31.329Z,94314.00
2023-04-30T16:11:33.823Z,94312.47
2023-04-30T16:13:35.553Z,94323.38
2023-04-30T16:15:37.200Z,94321.16
2023-04-30T16:17:39.122Z,94321.06
2023-04-30T16:19:41.203Z,94323.06
2023-04-30T16:21:43.585Z,94326.03
2023-04-30T16:23:47.314Z,94328.41
2023-04-30T16:25:48.892Z,94330.84
2023-04-30T16:27:51.042Z,94330.41
2023-04-30T16:29:53.004Z,94325.94
2023-04-30T16:31:54.968Z,94327.41
2023-04-30T16:33:56.606Z,94328.91
2023-04-30T16:35:58.271Z,94326.50
2023-04-30T16:37:59.930Z,94323.94
2023-04-30T16:40:01.678Z,94321.44
2023-04-30T16:42:03.392Z,94322.16
2023-04-30T16:44:05.729Z,94320.44
2023-04-30T16:46:07.696Z,94330.13
2023-04-30T16:48:09.397Z,94320.75
2023-04-30T16:50:11.278Z,94322.16
2023-04-30T16:52:12.939Z,94333.16
2023-04-30T16:54:14.539Z,94331.50
2023-04-30T16:56:16.198Z,94335.53
2023-04-30T16:58:17.814Z,94332.28
2023-04-30T17:00:19.601Z,94335.09
2023-04-30T17:02:21.379Z,94344.75
2023-04-30T17:04:23.049Z,94348.81
2023-04-30T17:06:24.738Z,94344.69
2023-04-30T17:08:26.574Z,94341.59
2023-04-30T17:10:30.136Z,94341.75
2023-04-30T17:12:32.374Z,94353.31
2023-04-30T17:14:34.097Z,94356.69
2023-04-30T17:16:35.789Z,94352.72
2023-04-30T17:18:37.495Z,94357.13
2023-04-30T17:20:39.349Z,94360.69
2023-04-30T17:22:41.015Z,94362.72
2023-04-30T17:24:42.786Z,94369.59
2023-04-30T17:26:44.422Z,94372.34
2023-04-30T17:28:46.094Z,94372.63
2023-04-30T17:30:47.722Z,94373.69
2023-04-30T17:32:49.405Z,94380.47
2023-04-30T17:34:51.682Z,94379.66
2023-04-30T17:36:53.276Z,94383.72
2023-04-30T17:38:56.324Z,94385.56
2023-04-30T17:40:58.031Z,94391.44
2023-04-30T17:43:01.390Z,94387.16
2023-04-30T17:45:03.054Z,94393.50
2023-04-30T17:47:05.748Z,94395.13
2023-04-30T17:49:07.697Z,94397.19
2023-04-30T17:51:09.460Z,94401.69
2023-04-30T17:53:11.142Z,94406.38
2023-04-30T17:55:13.746Z,94406.97
2023-04-30T17:57:15.595Z,94407.41
2023-04-30T17:59:17.358Z,94411.69
2023-04-30T18:01:19.465Z,94415.72
2023-04-30T18:03:21.191Z,94413.88
2023-04-30T18:05:22.846Z,94419.59
2023-04-30T18:07:24.728Z,94426.91
2023-04-30T18:09:26.354Z,94431.59
2023-04-30T18:11:28.282Z,94433.41
2023-04-30T18:13:30.439Z,94437.25
2023-04-30T18:15:32.189Z,94435.03
2023-04-30T18:17:36.494Z,94435.03
2023-04-30T18:19:44.014Z,94438.28
2023-04-30T18:21:45.697Z,94444.38
2023-04-30T18:23:48.105Z,94445.19
2023-04-30T18:25:49.835Z,94445.34
2023-04-30T18:27:51.424Z,94452.88
2023-04-30T18:29:52.979Z,94462.44
2023-04-30T18:31:54.628Z,94460.22
2023-04-30T18:33:56.554Z,94461.63
2023-04-30T18:36:01.519Z,94471.81
2023-04-30T18:38:05.270Z,94463.69
2023-04-30T18:40:07.519Z,94461.66
2023-04-30T18:42:09.620Z,94470.19
2023-04-30T18:44:11.740Z,94473.25
2023-04-30T18:46:13.762Z,94475.28
2023-04-30T18:48:17.219Z,94481.34
2023-04-30T18:50:19.622Z,94485.81
2023-04-30T18:52:21.257Z,94484.16
2023-04-30T18:54:22.941Z,94491.88
2023-04-30T18:56:24.894Z,94487.41
2023-04-30T18:58:26.589Z,94482.53
2023-04-30T19:00:28.674Z,94482.50
2023-04-30T19:02:30.357Z,94487.16
2023-04-30T19:04:32.044Z,94487.75
2023-04-30T19:06:34.575Z,94489.38
2023-04-30T19:08:36.235Z,94487.94
2023-04-30T19:10:38.073Z,94481.63
2023-04-30T19:12:39.805Z,94498.66
2023-04-30T19:14:41.796Z,94495.59
2023-04-30T19:16:44.620Z,94494.59
2023-04-30T19:18:46.353Z,94497.81
2023-04-30T19:20:57.909Z,94497.78
2023-04-30T19:22:59.569Z,94503.06
2023-04-30T19:25:01.161Z,94505.06
2023-04-30T19:27:04.374Z,94503.22
2023-04-30T19:29:05.949Z,94512.16
2023-04-30T19:31:07.670Z,94506.25
2023-04-30T19:33:09.402Z,94503.78
2023-04-30T19:35:11.073Z,94507.03
2023-04-30T19:37:12.968Z,94510.06
2023-04-30T19:39:16.090Z,94515.53
2023-04-30T19:41:17.776Z,94517.53
2023-04-30T19:43:20.529Z,94519.56
2023-04-30T19:45:22.335Z,94518.97
2023-04-30T19:47:24.175Z,94521.63
2023-04-30T19:49:26.607Z,94524.88
2023-04-30T19:51:28.338Z,94522.44
2023-04-30T19:53:30.370Z,94528.53
2023-04-30T19:55:31.996Z,94530.56
2023-04-30T19:57:35.939Z,94531.53
2023-04-30T19:59:37.676Z,94531.75
2023-04-30T20:01:40.103Z,94534.59
2023-04-30T20:03:42.347Z,94535.78
2023-04-30T20:05:44.711Z,94535.56
2023-04-30T20:07:46.336Z,94533.19
2023-04-30T20:09:47.936Z,94531.53
2023-04-30T20:11:51.297Z,94530.56
2023-04-30T20:13:55.098Z,94535.44
2023-04-30T20:15:56.777Z,94535.03
2023-04-30T20:17:58.713Z,94535.78
2023-04-30T20:20:00.340Z,94534.91
2023-04-30T20:22:02.987Z,94541.78
2023-04-30T20:24:05.412Z,94541.16
2023-04-30T20:26:08.104Z,94540.16
2023-04-30T20:28:09.803Z,94534.50
2023-04-30T20:30:13.314Z,94542.78
2023-04-30T20:32:14.941Z,94544.44
2023-04-30T20:34:16.758Z,94538.53
2023-04-30T20:36:19.558Z,94542.56
2023-04-30T20:38:22.190Z,94546.56
2023-04-30T20:40:24.239Z,94545.94
2023-04-30T20:42:29.078Z,94553.88
2023-04-30T20:44:30.739Z,94546.72
2023-04-30T20:46:32.782Z,94555.38
2023-04-30T20:48:35.021Z,94558.88
2023-04-30T20:50:37.408Z,94568.50
2023-04-30T20:52:39.020Z,94565.25
2023-04-30T20:54:41.313Z,94573.16
2023-04-30T20:56:45.088Z,94572.91
2023-04-30T20:58:46.743Z,94576.44
2023-04-30T21:00:50.080Z,94572.97
2023-04-30T21:02:54.017Z,94566.50
2023-04-30T21:04:55.965Z,94573.78
2023-04-30T21:06:57.521Z,94576.81
2023-04-30T21:08:59.228Z,94581.81
2023-04-30T21:11:00.823Z,94582.66
2023-04-30T21:13:05.271Z,94584.03
2023-04-30T21:15:08.676Z,94592.56
2023-04-30T21:17:10.645Z,94598.81
2023-04-30T21:19:12.611Z,94596.56
2023-04-30T21:21:14.365Z,94599.56
2023-04-30T21:23:15.950Z,94598.56
2023-04-30T21:25:17.774Z,94598.41
2023-04-30T21:27:20.208Z,94601.41
2023-04-30T21:29:22.270Z,94607.84
2023-04-30T21:31:24.031Z,94604.56
2023-04-30T21:33:25.638Z,94598.94
2023-04-30T21:35:32.898Z,94602.31
2023-04-30T21:37:34.653Z,94603.94
2023-04-30T21:39:36.258Z,94607.19
2023-04-30T21:41:37.934Z,94609.75
2023-04-30T21:43:41.437Z,94612.38
2023-04-30T21:45:43.581Z,94605.69
2023-04-30T21:47:47.491Z,94611.31
2023-04-30T21:49:49.074Z,94611.13
2023-04-30T21:51:50.611Z,94612.13
2023-04-30T21:53:52.270Z,94610.22
2023-04-30T21:55:53.909Z,94606.09
2023-04-30T21:57:55.503Z,94608.38
2023-04-30T21:59:59.351Z,94608.19
2023-04-30T22:02:07.351Z,94604.38
2023-04-30T22:04:16.214Z,94606.38
2023-04-30T22:06:17.897Z,94607.75
2023-04-30T22:08:19.651Z,94605.13
2023-04-30T22:10:21.200Z,94604.47
2023-04-30T22:12:25.111Z,94613.38
2023-04-30T22:14:27.009Z,94612.13
2023-04-30T22:16:29.273Z,94610.50
2023-04-30T22:18:31.076Z,94607.19
2023-04-30T22:20:32.691Z,94615.91
2023-04-30T22:22:34.268Z,94614.13
2023-04-30T22:24:35.871Z,94613.47
2023-04-30T22:26:37.527Z,94614.84
2023-04-30T22:28:39.162Z,94609.22
2023-04-30T22:30:40.849Z,94610.97
2023-04-30T22:32:42.411Z,94616.59
2023-04-30T22:34:44.116Z,94612.78
2023-04-30T22:36:46.122Z,94615.06
2023-04-30T22:38:47.731Z,94618.31
2023-04-30T22:40:49.289Z,94607.31
2023-04-30T22:42:51.032Z,94611.78
2023-04-30T22:44:52.755Z,94617.16
2023-04-30T22:46:58.048Z,94617.34
2023-04-30T22:49:00.751Z,94609.25
2023-04-30T22:51:03.390Z,94610.03
2023-04-30T22:53:05.210Z,94614.50
2023-04-30T22:55:07.572Z,94611.69
2023-04-30T22:57:10.724Z,94611.25
2023-04-30T22:59:12.362Z,94606.53
2023-04-30T23:01:14.012Z,94598.78
2023-04-30T23:03:15.767Z,94601.81
2023-04-30T23:05:17.410Z,94603.88
2023-04-30T23:07:19.077Z,94605.25
2023-04-30T23:09:20.678Z,94605.81
2023-04-30T23:11:23.773Z,94605.63
2023-04-30T23:13:25.445Z,94612.72
2023-04-30T23:15:27.181Z,94612.53
2023-04-30T23:17:28.849Z,94609.72
2023-04-30T23:19:30.500Z,94610.97
2023-04-30T23:21:33.692Z,94613.78
2023-04-30T23:23:35.365Z,94613.78
2023-04-30T23:25:37.016Z,94607.06
2023-04-30T23:27:38.606Z,94605.00
2023-04-30T23:29:40.232Z,94600.53
2023-04-30T23:31:41.883Z,94611.63
2023-04-30T23:33:43.991Z,94606.25
2023-04-30T23:35:46.020Z,94607.44
2023-04-30T23:37:47.676Z,94610.81
2023-04-30T23:39:49.225Z,94606.09
2023-04-30T23:41:52.264Z,94607.25
2023-04-30T23:43:54.264Z,94599.53
2023-04-30T23:45:57.303Z,94604.00
2023-04-30T23:47:58.897Z,94594.91
2023-04-30T23:50:00.599Z,94600.81
2023-04-30T23:52:02.225Z,94602.16
2023-04-30T23:54:05.341Z,94598.25
2023-04-30T23:56:08.604Z,94601.06
2023-04-30T23:58:10.321Z,94606.31
